Time;durP1;ratioP1;P1;durP2;ratioP2;P2;SDS_P1;SDS_P2;PMS_P1;PMS_P2;Temp;Humidity;BMP_temperature;BMP_pressure;BME280_temperature;BME280_humidity;BME280_pressure;Samples;Min_cycle;Max_cycle;Signal;HPM_P1;HPM_P2
2021/07/29 00:00:47;;;;;;;5.38;2.78;;;;;;;17.55;69.06;96606.84;6214808;23;20013;-75
2021/07/29 00:03:16;;;;;;;2.35;2.15;;;;;;;17.51;69.10;96605.69;6214050;23;20020;-76
2021/07/29 00:05:46;;;;;;;3.60;2.25;;;;;;;17.49;68.99;96607.72;6214570;23;20028;-75
2021/07/29 00:08:14;;;;;;;2.22;2.03;;;;;;;17.47;69.46;96607.97;6214689;23;20044;-76
2021/07/29 00:10:41;;;;;;;2.67;1.75;;;;;;;17.49;69.53;96603.28;6214620;23;20024;-76
2021/07/29 00:13:09;;;;;;;2.70;1.83;;;;;;;17.52;69.11;96604.66;6214129;23;20025;-75
2021/07/29 00:15:37;;;;;;;1.88;1.77;;;;;;;17.52;69.34;96607.31;6214220;23;20021;-76
2021/07/29 00:20:51;;;;;;;3.78;2.05;;;;;;;17.55;69.13;96604.19;6214351;23;20021;-76
2021/07/29 00:23:18;;;;;;;4.00;2.00;;;;;;;17.55;69.00;96606.03;6214033;23;20357;-76
2021/07/29 00:25:46;;;;;;;2.40;2.20;;;;;;;17.54;68.86;96593.91;6214503;23;20035;-75
2021/07/29 00:28:13;;;;;;;3.40;2.25;;;;;;;17.54;69.08;96599.97;6214565;23;20276;-76
2021/07/29 00:30:41;;;;;;;3.30;2.38;;;;;;;17.54;68.92;96592.06;6214430;23;20028;-75
2021/07/29 00:33:08;;;;;;;3.35;2.53;;;;;;;17.54;68.55;96586.78;6213700;23;20027;-76
2021/07/29 00:35:36;;;;;;;2.53;2.33;;;;;;;17.52;68.73;96594.13;6214548;23;20033;-76
2021/07/29 00:38:05;;;;;;;2.58;2.08;;;;;;;17.49;69.03;96603.28;6214600;23;20024;-75
2021/07/29 00:40:32;;;;;;;3.55;2.03;;;;;;;17.46;68.81;96598.44;6214394;23;20020;-76
2021/07/29 00:43:00;;;;;;;2.33;2.10;;;;;;;17.44;69.17;96595.22;6213984;23;20035;-76
2021/07/29 00:45:28;;;;;;;3.75;2.08;;;;;;;17.40;69.22;96594.06;6214446;23;20027;-75
2021/07/29 00:47:55;;;;;;;2.38;2.17;;;;;;;17.40;69.17;96588.00;6214443;23;20031;-75
2021/07/29 00:50:36;;;;;;;2.42;2.17;;;;;;;17.40;69.16;96588.00;6214582;23;20020;-76
2021/07/29 00:53:06;;;;;;;2.30;2.10;;;;;;;17.42;69.17;96585.94;6213712;23;20028;-76
2021/07/29 00:55:34;;;;;;;2.80;2.40;;;;;;;17.42;69.09;96575.38;6214479;23;20043;-76
2021/07/29 00:58:02;;;;;;;2.47;2.28;;;;;;;17.41;68.95;96573.78;6214166;23;20530;-76
2021/07/29 01:00:29;;;;;;;2.90;2.28;;;;;;;17.40;68.98;96575.59;6224895;23;20043;-76
2021/07/29 01:02:57;;;;;;;5.13;2.42;;;;;;;17.39;68.97;96581.13;6237783;23;20024;-76
2021/07/29 01:05:24;;;;;;;3.22;2.00;;;;;;;17.39;69.12;96570.56;6238262;23;20012;-75
2021/07/29 01:07:53;;;;;;;4.38;2.15;;;;;;;17.38;69.02;96574.22;6223293;23;20131;-76
2021/07/29 01:10:23;;;;;;;4.70;2.28;;;;;;;17.36;68.99;96574.47;6214306;23;20020;-75
2021/07/29 01:12:50;;;;;;;3.25;2.33;;;;;;;17.34;69.00;96565.16;6214399;23;20021;-75
2021/07/29 01:15:18;;;;;;;2.90;2.03;;;;;;;17.35;68.94;96577.31;6214301;23;20024;-76
2021/07/29 01:17:45;;;;;;;3.78;1.98;;;;;;;17.35;69.05;96572.84;6214643;23;20035;-75
2021/07/29 01:20:20;;;;;;;4.45;2.60;;;;;;;17.35;68.63;96574.69;6216238;23;20020;-76
2021/07/29 01:22:47;;;;;;;4.15;2.03;;;;;;;17.35;68.89;96574.69;6216316;23;20048;-76
2021/07/29 01:25:15;;;;;;;3.80;2.30;;;;;;;17.35;68.85;96574.69;6215945;23;20028;-76
2021/07/29 01:27:42;;;;;;;2.00;1.80;;;;;;;17.34;68.75;96576.53;6216021;23;20029;-76
2021/07/29 01:30:11;;;;;;;2.65;2.15;;;;;;;17.35;68.83;96574.69;6216057;23;20023;-76
2021/07/29 01:32:39;;;;;;;3.22;2.60;;;;;;;17.34;68.57;96573.06;6215741;23;20024;-75
2021/07/29 01:35:09;;;;;;;3.50;1.90;;;;;;;17.35;68.66;96566.78;6216051;23;20021;-76
2021/07/29 01:37:39;;;;;;;3.40;2.00;;;;;;;17.38;68.65;96566.31;6216271;23;20032;-76
2021/07/29 01:40:08;;;;;;;3.53;2.38;;;;;;;17.40;68.51;96564.25;6215411;23;20025;-76
2021/07/29 01:42:36;;;;;;;3.13;2.22;;;;;;;17.40;68.47;96566.91;6215490;23;20407;-75
2021/07/29 01:45:04;;;;;;;6.07;2.60;;;;;;;17.37;68.42;96560.25;6215838;23;20020;-76
2021/07/29 01:47:32;;;;;;;2.38;2.17;;;;;;;17.38;68.34;96569.78;6216172;23;20115;-76
2021/07/29 01:50:00;;;;;;;4.35;2.22;;;;;;;17.39;68.22;96565.31;6216040;23;20020;-76
2021/07/29 01:52:28;;;;;;;3.10;2.45;;;;;;;17.39;68.48;96560.81;6215656;23;20028;-76
2021/07/29 01:54:57;;;;;;;3.40;2.10;;;;;;;17.41;68.47;96566.69;6215147;23;20020;-76
2021/07/29 01:57:24;;;;;;;7.93;2.30;;;;;;;17.42;68.26;96570.13;6215826;23;20075;-76
2021/07/29 01:59:52;;;;;;;3.75;2.45;;;;;;;17.40;68.17;96572.16;6215256;23;20020;-76
2021/07/29 02:02:20;;;;;;;2.30;2.10;;;;;;;17.40;68.20;96566.91;6215581;23;20025;-75
2021/07/29 02:04:47;;;;;;;5.20;2.20;;;;;;;17.40;68.22;96572.97;6215493;23;20024;-75
2021/07/29 02:07:15;;;;;;;3.47;2.35;;;;;;;17.40;68.38;96572.97;6215779;23;20020;-76
2021/07/29 02:09:42;;;;;;;8.65;2.90;;;;;;;17.39;68.14;96568.75;6215560;23;20020;-76
2021/07/29 02:12:11;;;;;;;4.30;2.85;;;;;;;17.36;68.38;96582.38;6215264;23;20468;-76
2021/07/29 02:14:39;;;;;;;4.13;2.45;;;;;;;17.36;68.27;96571.00;6214975;23;20036;-75
2021/07/29 02:17:06;;;;;;;4.60;2.60;;;;;;;17.35;68.22;96572.84;6215664;23;20024;-76
2021/07/29 02:19:34;;;;;;;2.50;2.30;;;;;;;17.33;68.37;96572.28;6215686;23;20025;-76
2021/07/29 02:22:01;;;;;;;4.25;2.55;;;;;;;17.34;68.37;96567.78;6215199;23;20464;-76
2021/07/29 02:24:29;;;;;;;2.53;2.15;;;;;;;17.33;68.35;96574.09;6214655;23;20040;-76
2021/07/29 02:26:56;;;;;;;4.20;2.60;;;;;;;17.32;68.24;96572.47;6215465;23;20020;-76
2021/07/29 02:29:25;;;;;;;2.15;2.05;;;;;;;17.33;68.53;96576.75;6215340;23;20025;-76
2021/07/29 02:31:52;;;;;;;3.45;2.30;;;;;;;17.31;68.24;96569.06;6215388;23;20024;-75
2021/07/29 02:34:26;;;;;;;3.03;2.40;;;;;;;17.30;68.23;96573.53;6215136;23;20028;-76
2021/07/29 02:36:53;;;;;;;2.20;2.00;;;;;;;17.30;68.32;96572.72;6215503;23;20027;-76
2021/07/29 02:39:21;;;;;;;4.53;2.40;;;;;;;17.29;67.98;96571.94;6215441;23;20024;-75
2021/07/29 02:41:49;;;;;;;2.70;2.10;;;;;;;17.28;68.17;96575.59;6215450;23;20325;-76
2021/07/29 02:44:16;;;;;;;3.20;2.15;;;;;;;17.28;68.04;96574.78;6215126;23;20020;-76
2021/07/29 02:46:45;;;;;;;4.68;2.17;;;;;;;17.28;67.92;96585.34;6214873;23;20023;-76
2021/07/29 02:49:13;;;;;;;4.50;2.30;;;;;;;17.25;67.84;96578.69;6215269;23;20020;-76
2021/07/29 02:51:40;;;;;;;2.25;2.05;;;;;;;17.24;67.97;96577.06;6215284;23;20017;-76
2021/07/29 02:54:08;;;;;;;3.40;2.10;;;;;;;17.26;68.08;96584.75;6214286;23;20025;-76
2021/07/29 02:56:35;;;;;;;3.88;2.92;;;;;;;17.27;67.94;96589.81;6215293;23;20020;-76
2021/07/29 02:59:03;;;;;;;2.47;2.13;;;;;;;17.26;68.16;96580.28;6215286;23;20031;-76
2021/07/29 03:01:30;;;;;;;2.67;2.47;;;;;;;17.28;68.11;96580.84;6215324;23;20017;-76
2021/07/29 03:04:00;;;;;;;2.78;2.42;;;;;;;17.27;68.21;96584.53;6214884;23;20056;-76
2021/07/29 03:06:27;;;;;;;2.38;2.17;;;;;;;17.26;68.37;96580.28;6215191;23;20080;-77
2021/07/29 03:08:55;;;;;;;2.53;2.13;;;;;;;17.27;68.22;96581.91;6215213;23;20024;-77
2021/07/29 03:11:22;;;;;;;4.85;2.78;;;;;;;17.25;68.01;96588.41;6215045;23;20020;-76
2021/07/29 03:13:50;;;;;;;3.53;2.35;;;;;;;17.24;68.14;96584.97;6214649;23;20352;-77
2021/07/29 03:16:17;;;;;;;2.47;2.28;;;;;;;17.24;67.99;96579.69;6214591;23;20016;-76
2021/07/29 03:18:45;;;;;;;3.10;2.13;;;;;;;17.24;67.95;96584.16;6215250;23;20020;-77
2021/07/29 03:21:14;;;;;;;3.58;2.92;;;;;;;17.23;68.13;96588.66;6215191;23;20031;-76
2021/07/29 03:23:41;;;;;;;5.20;2.08;;;;;;;17.24;67.83;96592.06;6214106;23;20024;-77
2021/07/29 03:26:09;;;;;;;2.83;2.33;;;;;;;17.23;67.94;96585.19;6214620;23;20408;-76
2021/07/29 03:28:36;;;;;;;13.77;2.78;;;;;;;17.23;67.75;96578.09;6215065;23;20028;-77
2021/07/29 03:31:04;;;;;;;3.30;2.45;;;;;;;17.22;67.94;96587.03;6214941;23;20330;-77
2021/07/29 03:33:31;;;;;;;9.50;3.08;;;;;;;17.21;67.93;96585.44;6214556;23;20020;-77
2021/07/29 03:35:59;;;;;;;3.95;2.25;;;;;;;17.20;67.85;96594.34;6214569;23;20021;-76
2021/07/29 03:38:28;;;;;;;6.68;2.88;;;;;;;17.19;67.85;96584.84;6214817;23;20020;-77
2021/07/29 03:40:55;;;;;;;4.32;2.50;;;;;;;17.18;67.88;96585.84;6214155;23;20472;-77
2021/07/29 03:43:23;;;;;;;3.80;2.42;;;;;;;17.18;67.82;96585.84;6214448;23;20025;-77
2021/07/29 03:45:50;;;;;;;5.53;2.55;;;;;;;17.18;68.04;96590.31;6214402;23;20024;-77
2021/07/29 03:48:18;;;;;;;3.17;2.55;;;;;;;17.17;68.00;96588.72;6214999;23;20031;-77
2021/07/29 03:50:47;;;;;;;7.15;2.75;;;;;;;17.17;67.98;96591.38;6214847;23;20106;-77
2021/07/29 03:53:14;;;;;;;4.88;3.00;;;;;;;17.16;67.89;96587.91;6213827;23;20020;-77
2021/07/29 03:55:44;;;;;;;5.97;2.42;;;;;;;17.16;68.04;96587.91;6218131;23;20043;-77
2021/07/29 03:58:12;;;;;;;2.80;2.40;;;;;;;17.17;68.21;96586.91;6240709;23;20017;-77
2021/07/29 04:00:39;;;;;;;5.85;2.65;;;;;;;17.19;68.34;96592.75;6238794;23;20035;-77
2021/07/29 04:03:07;;;;;;;5.93;2.65;;;;;;;17.22;68.48;96591.50;6238719;23;20004;-77
2021/07/29 04:05:35;;;;;;;2.20;2.00;;;;;;;17.23;68.30;96583.38;6240401;23;20024;-77
2021/07/29 04:08:04;;;;;;;4.15;2.60;;;;;;;17.25;68.20;96583.94;6239763;23;20031;-77
2021/07/29 04:10:32;;;;;;;3.88;2.05;;;;;;;17.26;67.99;96584.75;6239338;23;20023;-77
2021/07/29 04:13:00;;;;;;;4.78;2.70;;;;;;;17.27;68.01;96588.97;6239160;23;20016;-77
2021/07/29 04:15:28;;;;;;;3.67;2.60;;;;;;;17.27;68.20;96589.81;6238284;23;20051;-77
2021/07/29 04:17:55;;;;;;;3.72;2.78;;;;;;;17.28;68.10;96585.34;6239296;23;20025;-77
2021/07/29 04:20:23;;;;;;;5.22;2.70;;;;;;;17.26;68.00;96588.19;6228766;23;20027;-77
2021/07/29 04:22:51;;;;;;;6.93;3.13;;;;;;;17.25;67.92;96591.88;6213751;23;20490;-76
2021/07/29 04:25:18;;;;;;;5.30;2.50;;;;;;;17.26;68.27;96596.09;6214793;23;20025;-77
2021/07/29 04:27:46;;;;;;;3.10;2.47;;;;;;;17.26;68.21;96593.47;6214629;23;20020;-77
2021/07/29 04:30:16;;;;;;;3.50;2.13;;;;;;;17.27;68.43;96595.09;6214911;23;20017;-76
2021/07/29 04:32:44;;;;;;;5.28;3.28;;;;;;;17.27;68.24;96595.09;6214464;23;20017;-77
2021/07/29 04:35:11;;;;;;;3.03;2.50;;;;;;;17.28;68.34;96604.59;6214228;23;20024;-76
2021/07/29 04:37:39;;;;;;;2.75;2.33;;;;;;;17.28;68.27;96601.94;6214846;23;20036;-77
2021/07/29 04:40:08;;;;;;;3.33;2.30;;;;;;;17.30;68.67;96604.38;6214578;23;20031;-77
2021/07/29 04:42:35;;;;;;;3.63;2.72;;;;;;;17.33;68.46;96613.66;6214033;23;20021;-77
2021/07/29 04:45:03;;;;;;;3.90;2.92;;;;;;;17.33;68.36;96603.91;6214577;23;20027;-77
2021/07/29 04:47:32;;;;;;;6.60;3.13;;;;;;;17.33;68.36;96613.66;6214465;23;20024;-77
2021/07/29 04:50:00;;;;;;;7.25;2.30;;;;;;;17.33;68.19;96609.19;6225344;23;20025;-76
2021/07/29 04:52:28;;;;;;;2.92;2.47;;;;;;;17.34;68.14;96600.25;6238162;23;20009;-77
2021/07/29 04:54:55;;;;;;;3.90;2.67;;;;;;;17.37;68.14;96601.63;6239816;23;20026;-77
2021/07/29 04:57:22;;;;;;;3.15;2.53;;;;;;;17.36;68.18;96602.66;6240829;23;20024;-77
2021/07/29 04:59:50;;;;;;;5.20;3.08;;;;;;;17.37;68.09;96599.78;6240419;23;20024;-77
2021/07/29 05:02:18;;;;;;;6.13;3.33;;;;;;;17.39;67.73;96604.84;6238877;23;20025;-77
2021/07/29 05:04:47;;;;;;;3.10;2.80;;;;;;;17.41;68.34;96606.22;6238747;23;20011;-77
2021/07/29 05:07:14;;;;;;;11.15;4.35;;;;;;;17.46;68.14;96609.00;6231246;23;20020;-76
2021/07/29 05:09:42;;;;;;;5.95;3.60;;;;;;;17.52;68.07;96606.50;6218946;23;20021;-76
2021/07/29 05:12:09;;;;;;;10.82;4.93;;;;;;;17.55;67.93;96616.59;6217101;23;20032;-76
2021/07/29 05:14:37;;;;;;;7.85;4.68;;;;;;;17.59;67.75;96618.53;6216203;23;20025;-76
2021/07/29 05:17:05;;;;;;;6.25;4.68;;;;;;;17.63;67.83;96603.09;6227085;23;20077;-76
2021/07/29 05:19:34;;;;;;;9.68;6.35;;;;;;;17.66;67.84;96611.31;6234938;23;20025;-77
2021/07/29 05:22:03;;;;;;;12.57;6.57;;;;;;;17.68;67.63;96606.63;6234762;23;20016;-77
2021/07/29 05:24:31;;;;;;;7.50;5.72;;;;;;;17.69;67.65;96602.97;6231255;23;20027;-77
2021/07/29 05:26:58;;;;;;;5.80;5.25;;;;;;;17.71;67.59;96603.56;6226332;23;20461;-76
2021/07/29 05:29:26;;;;;;;9.77;5.60;;;;;;;17.74;67.60;96610.22;6216573;23;20084;-76
2021/07/29 05:31:53;;;;;;;9.48;5.63;;;;;;;17.77;67.44;96598.41;6216156;23;20020;-77
2021/07/29 05:34:21;;;;;;;7.50;5.15;;;;;;;17.82;67.53;96601.19;6215671;23;20020;-77
2021/07/29 05:36:48;;;;;;;6.32;5.28;;;;;;;17.85;67.57;96608.66;6216145;23;20021;-77
2021/07/29 05:39:17;;;;;;;7.40;5.03;;;;;;;17.87;67.73;96603.97;6216656;23;20357;-77
2021/07/29 05:41:45;;;;;;;5.60;4.70;;;;;;;17.95;68.04;96610.72;6216707;23;20351;-76
2021/07/29 05:44:13;;;;;;;8.43;4.53;;;;;;;18.00;67.55;96611.66;6216033;23;20017;-77
2021/07/29 05:46:40;;;;;;;4.50;4.10;;;;;;;18.04;67.35;96617.28;6216218;23;20024;-77
2021/07/29 05:49:08;;;;;;;4.97;4.32;;;;;;;18.09;67.01;96618.19;6216066;23;20032;-77
2021/07/29 05:51:35;;;;;;;7.72;5.43;;;;;;;18.11;66.89;96618.78;6216113;23;20024;-76
2021/07/29 05:54:02;;;;;;;7.03;5.03;;;;;;;18.12;66.77;96609.81;6212255;23;20025;-77
2021/07/29 05:56:31;;;;;;;5.90;4.75;;;;;;;18.15;66.88;96610.38;6216232;23;20020;-76
2021/07/29 05:58:59;;;;;;;9.05;5.15;;;;;;;18.19;66.77;96606.25;6216403;23;20032;-77
2021/07/29 06:01:26;;;;;;;8.68;5.32;;;;;;;18.22;66.80;96614.53;6216416;23;20021;-77
2021/07/29 06:03:55;;;;;;;7.75;6.00;;;;;;;18.26;66.79;96614.88;6215213;23;20024;-77
2021/07/29 06:06:22;;;;;;;9.68;5.45;;;;;;;18.28;66.84;96615.47;6216170;23;20020;-77
2021/07/29 06:08:53;;;;;;;6.63;5.03;;;;;;;18.30;66.50;96610.72;6217249;23;20032;-77
2021/07/29 06:11:20;;;;;;;6.15;4.82;;;;;;;18.34;66.44;96611.88;6217495;23;20043;-77
2021/07/29 06:13:49;;;;;;;7.10;5.20;;;;;;;18.37;66.57;96615.91;6216437;23;20024;-77
2021/07/29 06:16:18;;;;;;;5.88;5.25;;;;;;;18.41;66.20;96615.22;6216562;23;20061;-77
2021/07/29 06:18:53;;;;;;;6.97;5.00;;;;;;;18.46;66.17;96607.41;6216194;23;20074;-76
2021/07/29 06:21:20;;;;;;;8.75;5.68;;;;;;;18.52;65.69;96616.25;6216180;23;20451;-77
2021/07/29 06:23:48;;;;;;;7.43;5.50;;;;;;;18.57;66.24;96612.91;6215496;23;20047;-76
2021/07/29 06:26:15;;;;;;;8.43;5.13;;;;;;;18.63;65.96;96622.53;6216189;23;20357;-77
2021/07/29 06:28:42;;;;;;;12.35;6.10;;;;;;;18.67;65.99;96613.94;6215828;23;20333;-77
2021/07/29 06:31:11;;;;;;;9.48;6.05;;;;;;;18.71;65.97;96612.41;6215879;23;20024;-77
2021/07/29 06:33:39;;;;;;;10.63;5.32;;;;;;;18.77;65.74;96613.31;6215997;23;20027;-77
2021/07/29 06:36:07;;;;;;;8.50;5.22;;;;;;;18.82;65.65;96621.38;6215808;23;20016;-77
2021/07/29 06:38:34;;;;;;;7.40;5.18;;;;;;;18.86;65.29;96619.88;6216233;23;20456;-76
2021/07/29 06:41:07;;;;;;;6.50;5.80;;;;;;;18.92;65.30;96626.06;6215590;23;20031;-77
2021/07/29 06:43:35;;;;;;;;;;;;;;;19.00;65.29;96616.97;6216304;23;20021;-77
2021/07/29 06:46:03;;;;;;;5.80;4.68;;;;;;;19.05;64.93;96619.72;6215915;23;19924;-76
2021/07/29 06:48:32;;;;;;;8.70;4.53;;;;;;;19.12;64.82;96620.38;6215764;23;20020;-77
2021/07/29 06:51:02;;;;;;;6.70;4.43;;;;;;;19.19;64.78;96621.03;6215964;23;20115;-77
2021/07/29 06:53:30;;;;;;;9.02;4.43;;;;;;;19.26;64.99;96627.00;6215523;23;20399;-77
2021/07/29 06:55:59;;;;;;;3.97;3.47;;;;;;;19.33;64.33;96619.72;6216099;23;20024;-77
2021/07/29 06:58:26;;;;;;;4.40;2.60;;;;;;;19.41;63.01;96617.72;6232277;23;20004;-77
2021/07/29 07:01:00;;;;;;;7.43;2.08;;;;;;;19.49;61.68;96630.59;6239665;23;20016;-76
2021/07/29 07:03:28;;;;;;;2.45;1.92;;;;;;;19.55;61.41;96629.63;6239267;23;20424;-76
2021/07/29 07:06:00;;;;;;;1.55;1.45;;;;;;;19.64;61.27;96630.06;6223989;23;20024;-78
2021/07/29 07:08:28;;;;;;;3.20;1.73;;;;;;;19.71;60.57;96622.78;6218484;23;20020;-77
2021/07/29 07:10:55;;;;;;;1.90;1.70;;;;;;;19.75;60.00;96632.66;6216913;23;20027;-77
2021/07/29 07:13:23;;;;;;;4.90;1.50;;;;;;;19.83;59.95;96628.81;6215763;23;20021;-77
2021/07/29 07:15:50;;;;;;;2.40;1.90;;;;;;;19.89;59.75;96625.19;6238800;23;20020;-77
2021/07/29 07:18:18;;;;;;;3.33;2.20;;;;;;;19.95;59.77;96628.72;6239769;23;20029;-77
2021/07/29 07:20:45;;;;;;;3.38;1.60;;;;;;;20.02;59.34;96634.66;6221176;23;20029;-77
2021/07/29 07:23:14;;;;;;;2.15;1.95;;;;;;;20.07;58.80;96632.13;6215643;23;20043;-76
2021/07/29 07:25:42;;;;;;;3.20;1.73;;;;;;;20.13;59.17;96623.19;6215773;23;20023;-77
2021/07/29 07:28:09;;;;;;;2.08;1.70;;;;;;;20.20;58.48;96630.16;6215809;23;20020;-77
2021/07/29 07:30:39;;;;;;;2.13;1.80;;;;;;;20.24;58.02;96623.34;6215816;23;20084;-77
2021/07/29 07:33:07;;;;;;;2.67;2.17;;;;;;;20.30;58.22;96632.97;6215119;23;20099;-77
2021/07/29 07:35:35;;;;;;;2.50;1.83;;;;;;;20.36;58.41;96634.66;6215361;23;20039;-77
2021/07/29 07:38:03;;;;;;;1.98;1.70;;;;;;;20.41;57.48;96626.78;6230530;23;20024;-77
2021/07/29 07:40:32;;;;;;;6.80;1.80;;;;;;;20.47;57.82;96623.16;6236356;23;20020;-77
2021/07/29 07:43:00;;;;;;;2.15;1.75;;;;;;;20.53;58.22;96629.31;6234832;23;20052;-77
2021/07/29 07:45:27;;;;;;;4.82;1.52;;;;;;;20.57;57.43;96623.34;6218624;23;20353;-78
2021/07/29 07:47:55;;;;;;;3.15;1.90;;;;;;;20.64;57.42;96630.28;6217003;23;20024;-77
2021/07/29 07:50:23;;;;;;;2.10;1.85;;;;;;;20.69;57.13;96619.75;6216653;23;20464;-77
2021/07/29 07:52:50;;;;;;;2.47;1.80;;;;;;;20.74;57.08;96619.81;6215627;23;20024;-77
2021/07/29 07:55:18;;;;;;;2.25;1.70;;;;;;;20.79;56.60;96617.22;6214766;23;20016;-77
2021/07/29 07:57:47;;;;;;;3.88;1.70;;;;;;;20.84;56.70;96630.56;6215107;23;20028;-77
2021/07/29 08:00:15;;;;;;;1.55;1.45;;;;;;;20.90;56.42;96629.59;6215231;23;20032;-77
2021/07/29 08:02:43;;;;;;;2.22;1.85;;;;;;;20.94;55.57;96628.00;6215169;23;20021;-77
2021/07/29 08:05:11;;;;;;;5.32;2.05;;;;;;;20.96;55.74;96623.25;6215273;23;20448;-77
2021/07/29 08:07:38;;;;;;;4.50;1.90;;;;;;;21.01;55.74;96619.06;6215047;23;20029;-77
2021/07/29 08:10:07;;;;;;;4.47;2.05;;;;;;;21.05;55.71;96617.53;6215158;23;20020;-77
2021/07/29 08:12:34;;;;;;;3.03;1.88;;;;;;;21.11;55.96;96611.25;6214348;23;20030;-77
2021/07/29 08:15:04;;;;;;;8.55;2.55;;;;;;;21.20;55.94;96612.41;6215187;23;20082;-77
2021/07/29 08:17:32;;;;;;;3.10;1.83;;;;;;;21.29;55.42;96618.06;6215202;23;20024;-77
2021/07/29 08:19:59;;;;;;;2.28;1.65;;;;;;;21.39;55.24;96608.34;6215174;23;20021;-77
2021/07/29 08:22:27;;;;;;;2.75;2.00;;;;;;;21.48;55.00;96613.25;6214914;23;20021;-77
2021/07/29 08:24:55;;;;;;;2.53;1.90;;;;;;;21.57;55.15;96619.69;6215132;23;20016;-76
2021/07/29 08:27:22;;;;;;;4.95;1.83;;;;;;;21.66;54.24;96609.44;6217274;23;20025;-77
2021/07/29 08:29:50;;;;;;;2.63;1.67;;;;;;;21.70;53.33;96621.94;6218527;23;20031;-77
2021/07/29 08:32:19;;;;;;;2.20;1.77;;;;;;;21.75;53.38;96627.28;6218867;23;20079;-77
2021/07/29 08:34:46;;;;;;;3.42;1.95;;;;;;;21.81;53.37;96610.34;6218414;23;20021;-77
2021/07/29 08:37:14;;;;;;;2.15;1.80;;;;;;;21.92;53.49;96613.09;6218726;23;20028;-77
2021/07/29 08:39:41;;;;;;;1.70;1.60;;;;;;;21.99;53.45;96614.47;6218596;23;20024;-77
2021/07/29 08:42:09;;;;;;;3.10;2.20;;;;;;;22.12;53.13;96618.56;6218507;23;20032;-77
2021/07/29 08:44:36;;;;;;;2.67;2.05;;;;;;;22.21;52.75;96611.72;6218217;23;20016;-77
2021/07/29 08:47:09;;;;;;;3.15;1.77;;;;;;;22.32;52.19;96617.13;6218487;23;20031;-77
2021/07/29 08:50:01;;;;;;;4.05;2.17;;;;;;;22.35;51.83;96622.72;6217851;23;20024;-77
2021/07/29 08:52:33;;;;;;;3.05;1.80;;;;;;;22.36;51.31;96619.00;6218616;23;20028;-78
2021/07/29 08:55:01;;;;;;;7.30;2.30;;;;;;;22.37;50.45;96619.81;6218075;23;20027;-77
2021/07/29 08:57:30;;;;;;;2.20;1.80;;;;;;;22.42;50.32;96625.16;6218473;23;20021;-77
2021/07/29 09:00:01;;;;;;;3.53;2.35;;;;;;;22.47;50.28;96619.88;6218669;23;20384;-77
2021/07/29 09:02:29;;;;;;;3.08;2.60;;;;;;;22.51;50.37;96620.16;6218367;23;20028;-77
2021/07/29 09:05:15;;;;;;;3.75;2.15;;;;;;;22.55;48.95;96610.63;6218391;23;20027;-77
2021/07/29 09:07:43;;;;;;;2.22;2.05;;;;;;;22.57;49.13;96616.47;6218911;23;20021;-77
2021/07/29 09:10:25;;;;;;;3.45;1.88;;;;;;;22.60;48.89;96608.78;6218640;23;20020;-77
2021/07/29 09:13:11;;;;;;;2.47;2.25;;;;;;;22.67;48.92;96603.22;6218107;23;20020;-77
2021/07/29 09:15:40;;;;;;;4.70;2.25;;;;;;;22.81;48.69;96608.88;6218604;23;20031;-77
2021/07/29 09:18:08;;;;;;;4.78;2.30;;;;;;;22.90;48.48;96609.97;6217975;23;20377;-77
2021/07/29 09:20:38;;;;;;;4.85;2.40;;;;;;;22.98;48.18;96606.81;6218606;23;20028;-77
2021/07/29 09:23:13;;;;;;;3.35;2.63;;;;;;;23.10;48.07;96605.81;6218141;23;20032;-77
2021/07/29 09:25:41;;;;;;;3.58;2.65;;;;;;;23.19;47.97;96609.56;6218170;23;20017;-77
2021/07/29 09:28:08;;;;;;;4.88;2.40;;;;;;;23.28;47.41;96602.66;6218494;23;20365;-77
2021/07/29 09:30:36;;;;;;;3.05;2.00;;;;;;;23.38;46.99;96597.38;6217923;23;20027;-77
2021/07/29 09:33:05;;;;;;;6.40;2.75;;;;;;;23.42;46.77;96598.44;6217698;23;20485;-77
2021/07/29 09:35:44;;;;;;;2.92;2.13;;;;;;;23.49;46.35;96602.72;6217677;23;20023;-77
2021/07/29 09:38:20;;;;;;;2.53;2.30;;;;;;;23.55;46.95;96593.66;6217406;23;20031;-77
2021/07/29 09:40:53;;;;;;;3.80;2.25;;;;;;;23.61;47.32;96596.09;6216908;23;20024;-77
2021/07/29 09:43:22;;;;;;;2.28;2.00;;;;;;;23.68;47.00;96595.00;6222979;23;20028;-77
2021/07/29 09:45:51;;;;;;;4.65;2.35;;;;;;;23.75;46.32;96604.38;6239594;23;20025;-77
2021/07/29 09:48:21;;;;;;;4.32;2.85;;;;;;;23.82;46.22;96602.22;6238691;23;20024;-77
2021/07/29 09:50:52;;;;;;;4.00;2.28;;;;;;;23.89;45.49;96601.97;6223928;23;20012;-77
2021/07/29 09:53:20;;;;;;;2.92;2.22;;;;;;;23.91;45.07;96604.38;6216477;23;20365;-77
2021/07/29 09:55:47;;;;;;;3.13;2.38;;;;;;;23.90;45.04;96603.56;6217122;23;20028;-77
2021/07/29 09:58:15;;;;;;;3.85;2.28;;;;;;;23.90;44.94;96592.09;6216748;23;20020;-77
2021/07/29 10:00:43;;;;;;;2.63;2.22;;;;;;;23.92;44.76;96592.63;6216556;23;20032;-77
2021/07/29 10:03:11;;;;;;;6.15;2.90;;;;;;;23.93;44.21;96592.38;6216336;23;20024;-77
2021/07/29 10:05:48;;;;;;;6.53;2.55;;;;;;;23.97;43.57;96601.44;6216421;23;20027;-77
2021/07/29 10:08:24;;;;;;;4.47;2.40;;;;;;;24.00;43.38;96592.09;6217392;23;20023;-77
2021/07/29 10:10:52;;;;;;;4.25;2.47;;;;;;;24.06;43.66;96583.03;6217147;23;20407;-77
2021/07/29 10:13:20;;;;;;;3.70;2.40;;;;;;;24.05;43.36;96584.91;6215374;23;20027;-78
2021/07/29 10:15:47;;;;;;;5.75;2.50;;;;;;;24.04;43.72;96583.31;6216776;23;20025;-77
2021/07/29 10:18:15;;;;;;;3.22;2.38;;;;;;;24.07;43.58;96576.63;6216853;23;20025;-77
2021/07/29 10:20:43;;;;;;;5.32;2.30;;;;;;;24.10;43.75;96573.44;6216860;23;20368;-77
2021/07/29 10:23:32;;;;;;;5.38;2.08;;;;;;;24.10;43.02;96581.44;6216589;23;20351;-78
2021/07/29 10:26:10;;;;;;;4.78;2.25;;;;;;;24.06;43.01;96578.50;6207381;23;20095;-77
2021/07/29 10:28:39;;;;;;;5.25;2.67;;;;;;;24.03;43.36;96581.72;6216299;23;20020;-77
2021/07/29 10:31:12;;;;;;;3.30;2.55;;;;;;;24.02;43.00;96579.31;6216433;23;20031;-77
2021/07/29 10:33:42;;;;;;;5.20;2.30;;;;;;;24.07;43.48;96579.31;6216036;23;20025;-77
2021/07/29 10:36:43;;;;;;;6.78;3.25;;;;;;;24.06;43.35;96580.38;6216396;23;20354;-77
2021/07/29 10:39:13;;;;;;;3.35;2.25;;;;;;;24.02;43.51;96581.97;6215883;23;20469;-78
2021/07/29 10:41:54;;;;;;;2.22;2.03;;;;;;;24.02;42.89;96581.97;6216269;23;20020;-78
2021/07/29 10:44:46;;;;;;;5.07;2.37;;;;;;;24.08;43.70;96577.47;6215791;23;20024;-78
2021/07/29 10:47:18;;;;;;;4.78;2.78;;;;;;;24.12;43.84;96581.97;6216444;23;20356;-77
2021/07/29 10:50:22;;;;;;;3.55;2.47;;;;;;;24.16;43.61;96580.38;6215923;23;20020;-77
2021/07/29 10:52:52;;;;;;;4.50;2.42;;;;;;;24.19;43.62;96563.84;6216154;23;20027;-77
2021/07/29 10:55:22;;;;;;;5.10;2.35;;;;;;;24.24;43.34;96555.03;6215777;23;20024;-77
2021/07/29 10:58:09;;;;;;;4.57;2.13;;;;;;;24.28;43.28;96574.75;6216700;23;20025;-77
2021/07/29 11:00:36;;;;;;;4.70;2.78;;;;;;;24.31;43.22;96557.41;6216841;23;20025;-78
2021/07/29 11:03:10;;;;;;;2.60;2.38;;;;;;;24.35;43.55;96550.47;6215972;23;20103;-77
2021/07/29 11:05:43;;;;;;;5.97;2.53;;;;;;;24.39;43.39;96570.19;6216282;23;20063;-77
2021/07/29 11:08:12;;;;;;;4.22;2.58;;;;;;;24.40;43.37;96558.44;6216994;23;20020;-77
2021/07/29 11:10:41;;;;;;;4.95;2.45;;;;;;;24.39;43.55;96562.97;6216154;23;20048;-77
2021/07/29 11:13:09;;;;;;;3.38;2.47;;;;;;;24.38;43.58;96555.25;6216090;23;20021;-77
2021/07/29 11:15:38;;;;;;;3.75;2.72;;;;;;;24.32;43.23;96567.81;6215832;23;20013;-77
2021/07/29 11:18:13;;;;;;;4.10;2.70;;;;;;;24.31;44.08;96557.41;6216046;23;20021;-77
2021/07/29 11:20:40;;;;;;;2.38;2.17;;;;;;;24.34;43.90;96559.56;6215862;23;20352;-77
2021/07/29 11:23:13;;;;;;;3.40;2.65;;;;;;;24.37;43.56;96559.00;6215408;23;20021;-77
2021/07/29 11:26:02;;;;;;;2.92;2.53;;;;;;;24.39;43.81;96551.53;6215825;23;20028;-77
2021/07/29 11:28:30;;;;;;;3.30;2.42;;;;;;;24.42;43.31;96540.31;6215862;23;20031;-77
2021/07/29 11:31:18;;;;;;;5.60;2.80;;;;;;;24.48;42.81;96560.59;6215898;23;20090;-77
2021/07/29 11:33:49;;;;;;;3.25;2.53;;;;;;;24.51;42.49;96549.41;6226991;23;20021;-77
2021/07/29 11:36:17;;;;;;;3.55;3.08;;;;;;;24.57;42.87;96550.16;6233670;23;20020;-78
2021/07/29 11:38:54;;;;;;;2.80;2.50;;;;;;;24.63;42.64;96541.88;6229645;23;20024;-77
2021/07/29 11:41:23;;;;;;;3.00;2.33;;;;;;;24.69;42.29;96534.66;6220934;23;20016;-77
2021/07/29 11:43:52;;;;;;;4.03;2.80;;;;;;;24.75;42.84;96548.75;6216224;23;20024;-77
2021/07/29 11:46:20;;;;;;;2.55;2.05;;;;;;;24.75;42.24;96548.75;6216588;23;20020;-77